Forksville, Virginia
Current Conditions -  °F | °C
As of 4:36 PM on Saturday 22 Nov 2014 (Local Time) from KAVC Reporting Station
Clear Clear  
Wind Chill: 45°   Ceiling: Unl
Heat Index: 47°   Visibility: 10mi
Dew Point: 18°   Wind: 5mph
Humidity: 31%   Direction: 180°S
Pressure: 30.45"   Gusts: NA
Location:  36.6609°N, 78.0932°W
Report Text: KAVC 222136Z AUTO 18004KT 10SM CLR 08/M08 A3045 RMK AO2 T00821080
Loading
Personal Weather Stations






























Interactive Weather Map New forecast layout! Learn more

10-Day Weather Forecast

Advertisements
Track Severe Weather on mobile